createdAt,value
2018-09-02T00:00:40.465Z,19.05
2018-09-02T00:03:07.979Z,20.43
2018-09-02T00:05:35.391Z,20.27
2018-09-02T00:08:03.161Z,20.57
2018-09-02T00:10:31.100Z,20.65
2018-09-02T00:12:58.368Z,18.55
2018-09-02T00:15:25.923Z,18.27
2018-09-02T00:17:53.245Z,18.98
2018-09-02T00:20:21.022Z,20.52
2018-09-02T00:22:49.138Z,21.93
2018-09-02T00:25:17.593Z,19.40
2018-09-02T00:27:45.544Z,22.48
2018-09-02T00:30:14.409Z,19.27
2018-09-02T00:32:42.760Z,18.20
2018-09-02T00:35:10.755Z,20.67
2018-09-02T00:37:39.149Z,21.70
2018-09-02T00:40:06.485Z,19.15
2018-09-02T00:42:33.791Z,21.97
2018-09-02T00:45:01.242Z,23.00
2018-09-02T00:47:28.493Z,19.43
2018-09-02T00:49:55.779Z,22.95
2018-09-02T00:52:23.523Z,21.60
2018-09-02T00:54:51.280Z,21.17
2018-09-02T00:57:18.983Z,19.20
2018-09-02T00:59:47.335Z,20.45
2018-09-02T01:02:15.527Z,19.13
2018-09-02T01:04:43.874Z,23.83
2018-09-02T01:07:11.371Z,22.20
2018-09-02T01:09:40.124Z,21.30
2018-09-02T01:12:08.035Z,21.97
2018-09-02T01:14:36.311Z,23.60
2018-09-02T01:17:04.014Z,23.07
2018-09-02T01:19:31.272Z,22.05
2018-09-02T01:21:58.520Z,21.67
2018-09-02T01:24:25.836Z,24.25
2018-09-02T01:26:53.124Z,21.27
2018-09-02T01:29:20.577Z,25.23
2018-09-02T01:31:49.010Z,20.27
2018-09-02T01:34:16.626Z,21.50
2018-09-02T01:36:44.739Z,21.60
2018-09-02T01:39:13.038Z,23.73
2018-09-02T01:41:41.053Z,22.60
2018-09-02T01:44:08.550Z,23.65
2018-09-02T01:46:36.191Z,23.65
2018-09-02T01:49:03.655Z,18.77
2018-09-02T01:51:30.867Z,20.45
2018-09-02T01:53:58.397Z,22.37
2018-09-02T01:56:25.652Z,21.20
2018-09-02T01:58:52.992Z,21.90
2018-09-02T02:01:20.707Z,18.17
2018-09-02T02:03:48.220Z,20.75
2018-09-02T02:06:15.957Z,18.42
2018-09-02T02:08:44.255Z,18.20
2018-09-02T02:11:12.606Z,20.17
2018-09-02T02:13:41.139Z,19.62
2018-09-02T02:16:08.849Z,18.27
2018-09-02T02:18:36.400Z,19.48
2018-09-02T02:21:04.023Z,20.05
2018-09-02T02:23:31.627Z,17.62
2018-09-02T02:25:58.999Z,22.30
2018-09-02T02:28:26.228Z,18.62
2018-09-02T02:30:53.644Z,15.30
2018-09-02T02:33:21.194Z,16.82
2018-09-02T02:35:48.655Z,19.85
2018-09-02T02:38:16.334Z,19.92
2018-09-02T02:40:44.459Z,17.12
2018-09-02T02:43:11.798Z,18.12
2018-09-02T02:45:39.215Z,18.97
2018-09-02T02:48:06.956Z,17.63
2018-09-02T02:50:34.441Z,18.25
2018-09-02T02:53:03.827Z,17.70
2018-09-02T02:55:31.986Z,19.87
2018-09-02T02:57:59.604Z,18.12
2018-09-02T03:00:26.808Z,19.00
2018-09-02T03:02:54.056Z,17.48
2018-09-02T03:05:22.229Z,17.65
2018-09-02T03:07:49.945Z,17.00
2018-09-02T03:10:17.656Z,19.82
2018-09-02T03:12:45.367Z,19.73
2018-09-02T03:15:13.650Z,22.55
2018-09-02T03:17:42.056Z,17.05
2018-09-02T03:20:09.579Z,17.60
2018-09-02T03:22:37.254Z,20.08
2018-09-02T03:25:04.584Z,20.82
2018-09-02T03:27:31.974Z,17.90
2018-09-02T03:29:59.225Z,16.80
2018-09-02T03:32:26.429Z,18.87
2018-09-02T03:34:53.724Z,18.33
2018-09-02T03:37:21.127Z,17.50
2018-09-02T03:39:48.650Z,17.17
2018-09-02T03:42:16.317Z,19.40
2018-09-02T03:44:44.220Z,18.83
2018-09-02T03:47:12.156Z,18.60
2018-09-02T03:49:40.075Z,19.95
2018-09-02T03:52:07.766Z,19.67
2018-09-02T03:54:35.399Z,16.30
2018-09-02T03:57:03.343Z,18.52
2018-09-02T03:59:31.783Z,20.17
2018-09-02T04:01:59.177Z,21.02
2018-09-02T04:04:26.798Z,20.53
2018-09-02T04:06:54.401Z,18.77
2018-09-02T04:09:21.751Z,18.32
2018-09-02T04:11:49.258Z,17.57
2018-09-02T04:14:16.790Z,19.52
2018-09-02T04:16:44.297Z,20.10
2018-09-02T04:19:11.969Z,17.00
2018-09-02T04:21:39.329Z,17.82
2018-09-02T04:24:06.674Z,20.23
2018-09-02T04:26:33.978Z,18.25
2018-09-02T04:29:01.371Z,20.13
2018-09-02T04:31:28.703Z,18.40
2018-09-02T04:33:56.047Z,18.32
2018-09-02T04:36:23.534Z,20.00
2018-09-02T04:38:51.353Z,20.55
2018-09-02T04:41:18.822Z,18.98
2018-09-02T04:43:46.596Z,19.80
2018-09-02T04:46:14.175Z,17.43
2018-09-02T04:48:42.118Z,17.33
2018-09-02T04:51:09.733Z,18.43
2018-09-02T04:53:37.344Z,20.33
2018-09-02T04:56:04.717Z,16.93
2018-09-02T04:58:33.041Z,18.33
2018-09-02T05:01:00.309Z,23.43
2018-09-02T05:03:27.772Z,21.07
2018-09-02T05:05:55.049Z,20.40
2018-09-02T05:08:22.248Z,21.37
2018-09-02T05:10:49.836Z,24.03
2018-09-02T05:13:17.361Z,19.20
2018-09-02T05:15:44.988Z,20.07
2018-09-02T05:18:12.779Z,19.70
2018-09-02T05:20:40.507Z,21.17
2018-09-02T05:23:08.223Z,18.63
2018-09-02T05:25:35.728Z,20.47
2018-09-02T05:28:03.300Z,20.10
2018-09-02T05:30:30.578Z,23.30
2018-09-02T05:32:57.807Z,21.82
2018-09-02T05:35:31.777Z,20.80
2018-09-02T05:37:59.060Z,21.23
2018-09-02T05:40:26.550Z,21.57
2018-09-02T05:42:53.775Z,22.17
2018-09-02T05:45:21.068Z,19.32
2018-09-02T05:47:48.889Z,22.17
2018-09-02T05:50:16.332Z,20.68
2018-09-02T05:52:43.949Z,19.77
2018-09-02T05:55:11.778Z,21.82
2018-09-02T05:57:39.352Z,20.07
2018-09-02T06:00:06.747Z,22.20
2018-09-02T06:02:34.461Z,19.10
2018-09-02T06:05:01.821Z,20.20
2018-09-02T06:07:29.059Z,19.80
2018-09-02T06:09:56.646Z,21.90
2018-09-02T06:12:24.019Z,20.20
2018-09-02T06:14:51.270Z,22.58
2018-09-02T06:17:19.017Z,20.10
2018-09-02T06:19:46.762Z,21.07
2018-09-02T06:22:14.566Z,20.40
2018-09-02T06:24:42.802Z,22.48
2018-09-02T06:27:10.403Z,19.17
2018-09-02T06:29:38.106Z,19.90
2018-09-02T06:32:05.704Z,18.60
2018-09-02T06:34:33.023Z,19.60
2018-09-02T06:37:00.280Z,17.33
2018-09-02T06:39:27.599Z,18.77
2018-09-02T06:41:54.739Z,20.37
2018-09-02T06:44:21.987Z,18.70
2018-09-02T06:46:49.437Z,20.37
2018-09-02T06:49:16.924Z,19.50
2018-09-02T06:51:44.482Z,17.73
2018-09-02T06:54:12.186Z,20.73
2018-09-02T06:56:39.530Z,17.30
2018-09-02T06:59:07.123Z,19.10
2018-09-02T07:01:34.820Z,18.00
2018-09-02T07:04:03.577Z,19.00
2018-09-02T07:06:31.270Z,16.27
2018-09-02T07:08:58.454Z,16.48
2018-09-02T07:11:25.801Z,14.47
2018-09-02T07:13:53.203Z,16.97
2018-09-02T07:16:20.789Z,16.70
2018-09-02T07:18:48.340Z,17.33
2018-09-02T07:21:16.002Z,17.03
2018-09-02T07:23:44.318Z,13.87
2018-09-02T07:38:27.782Z,12.80
2018-09-02T07:40:55.003Z,17.47
2018-09-02T07:43:22.356Z,14.80
2018-09-02T07:45:49.847Z,14.90
2018-09-02T07:48:17.436Z,16.13
2018-09-02T07:50:45.450Z,13.90
2018-09-02T07:53:13.248Z,15.48
2018-09-02T07:55:41.170Z,13.68
2018-09-02T07:58:08.705Z,14.43
2018-09-02T08:00:35.982Z,13.33
2018-09-02T08:03:03.271Z,13.15
2018-09-02T08:05:30.552Z,15.30
2018-09-02T08:07:57.875Z,14.85
2018-09-02T08:10:25.515Z,12.03
2018-09-02T08:12:53.036Z,9.68
2018-09-02T08:15:20.155Z,11.08
2018-09-02T08:17:47.705Z,10.18
2018-09-02T08:20:15.502Z,11.85
2018-09-02T08:22:43.637Z,11.33
2018-09-02T08:25:13.039Z,10.38
2018-09-02T08:27:41.877Z,11.15
2018-09-02T08:30:09.555Z,10.00
2018-09-02T08:32:37.340Z,8.20
2018-09-02T08:35:05.490Z,11.07
2018-09-02T08:37:32.731Z,9.88
2018-09-02T08:39:59.986Z,9.70
2018-09-02T08:42:27.186Z,10.30
2018-09-02T08:44:54.599Z,12.82
2018-09-02T08:47:22.090Z,9.13
2018-09-02T08:49:49.805Z,10.30
2018-09-02T08:52:17.683Z,10.00
2018-09-02T08:54:45.697Z,8.03
2018-09-02T08:57:13.799Z,9.20
2018-09-02T08:59:42.104Z,7.60
2018-09-02T09:02:10.480Z,7.65
2018-09-02T09:04:38.189Z,7.90
2018-09-02T09:07:06.081Z,8.73
2018-09-02T09:09:33.323Z,7.30
2018-09-02T09:12:00.801Z,9.38
2018-09-02T09:14:28.055Z,9.00
2018-09-02T09:16:55.385Z,6.30
2018-09-02T09:19:23.092Z,6.75
2018-09-02T09:21:51.655Z,7.00
2018-09-02T09:24:19.590Z,7.80
2018-09-02T09:26:47.364Z,7.12
2018-09-02T09:29:15.131Z,6.33
2018-09-02T09:31:43.336Z,8.08
2018-09-02T09:34:11.318Z,7.20
2018-09-02T09:36:38.982Z,9.33
2018-09-02T09:39:08.335Z,7.22
2018-09-02T09:41:36.515Z,8.20
2018-09-02T09:44:04.393Z,6.90
2018-09-02T09:46:32.186Z,7.03
2018-09-02T09:48:59.532Z,7.92
2018-09-02T09:51:26.833Z,8.27
2018-09-02T09:53:54.120Z,8.28
2018-09-02T09:56:21.467Z,6.40
2018-09-02T09:58:49.160Z,6.03
2018-09-02T10:01:16.749Z,6.15
2018-09-02T10:03:44.637Z,6.40
2018-09-02T10:06:12.547Z,10.43
2018-09-02T10:08:40.408Z,6.25
2018-09-02T10:11:08.056Z,6.97
2018-09-02T10:13:35.433Z,7.42
2018-09-02T10:16:03.054Z,6.97
2018-09-02T10:18:30.938Z,5.83
2018-09-02T10:20:58.187Z,6.83
2018-09-02T10:23:25.492Z,7.90
2018-09-02T10:25:52.932Z,6.90
2018-09-02T10:28:20.761Z,6.42
2018-09-02T10:30:48.721Z,6.75
2018-09-02T10:33:16.366Z,9.43
2018-09-02T10:35:44.176Z,7.60
2018-09-02T10:38:13.662Z,7.40
2018-09-02T10:40:42.039Z,6.95
2018-09-02T10:43:09.920Z,6.63
2018-09-02T10:45:37.323Z,5.97
2018-09-02T10:48:05.065Z,8.13
2018-09-02T10:50:32.367Z,6.78
2018-09-02T10:52:59.588Z,7.67
2018-09-02T10:55:26.916Z,7.25
2018-09-02T10:57:54.169Z,4.90
2018-09-02T11:00:21.686Z,4.53
2018-09-02T11:02:49.230Z,9.63
2018-09-02T11:05:17.072Z,4.85
2018-09-02T11:07:45.107Z,5.67
2018-09-02T11:10:12.970Z,9.53
2018-09-02T11:12:40.591Z,6.25
2018-09-02T11:15:09.568Z,6.90
2018-09-02T11:17:36.963Z,8.03
2018-09-02T11:20:04.215Z,6.42
2018-09-02T11:22:31.451Z,7.10
2018-09-02T11:24:58.703Z,6.27
2018-09-02T11:27:26.340Z,5.47
2018-09-02T11:29:53.566Z,6.00
2018-09-02T11:32:20.923Z,5.08
2018-09-02T11:34:48.578Z,4.45
2018-09-02T11:37:16.237Z,7.28
2018-09-02T11:39:44.393Z,5.25
2018-09-02T11:42:11.784Z,6.10
2018-09-02T11:44:39.007Z,5.22
2018-09-02T11:47:06.235Z,3.70
2018-09-02T11:49:33.688Z,5.08
2018-09-02T11:52:00.925Z,3.12
2018-09-02T11:54:28.119Z,3.77
2018-09-02T11:56:55.373Z,4.30
2018-09-02T11:59:23.272Z,4.10
2018-09-02T12:01:51.056Z,4.60
2018-09-02T12:04:18.772Z,3.25
2018-09-02T12:06:46.437Z,3.80
2018-09-02T12:09:14.390Z,5.80
2018-09-02T12:11:42.440Z,4.90
2018-09-02T12:14:10.741Z,3.40
2018-09-02T12:16:38.267Z,3.30
2018-09-02T12:19:05.551Z,3.70
2018-09-02T12:21:32.855Z,6.83
2018-09-02T12:24:00.095Z,6.00
2018-09-02T12:26:27.415Z,4.03
2018-09-02T12:28:54.780Z,4.20
2018-09-02T12:31:22.810Z,7.57
2018-09-02T12:33:50.299Z,5.43
2018-09-02T12:36:18.024Z,3.83
2018-09-02T12:38:45.933Z,9.50
2018-09-02T12:48:34.732Z,5.20
2018-09-02T12:51:02.048Z,4.70
2018-09-02T12:53:29.410Z,8.00
2018-09-02T13:15:37.150Z,8.70
2018-09-02T13:18:04.912Z,6.93
2018-09-02T13:20:33.124Z,7.75
2018-09-02T13:23:00.370Z,7.20
2018-09-02T13:25:27.656Z,3.80
2018-09-02T13:27:54.944Z,3.60
2018-09-02T13:30:22.296Z,5.70
2018-09-02T13:32:49.978Z,3.40
2018-09-02T13:35:17.644Z,3.50
2018-09-02T13:37:45.332Z,3.00
2018-09-02T13:40:13.782Z,3.02
2018-09-02T13:42:41.401Z,3.10
2018-09-02T13:45:09.087Z,4.20
2018-09-02T13:47:36.331Z,3.30
2018-09-02T14:07:12.744Z,3.60
2018-09-02T14:09:40.372Z,3.22
2018-09-02T14:12:07.855Z,3.60
2018-09-02T14:14:35.137Z,3.03
2018-09-02T14:17:02.704Z,4.58
2018-09-02T14:19:29.925Z,5.72
2018-09-02T14:24:24.207Z,2.90
2018-09-02T14:26:51.854Z,2.60
2018-09-02T14:29:19.451Z,2.85
2018-09-02T15:20:48.345Z,2.52
2018-09-02T15:23:15.707Z,3.90
2018-09-02T15:25:43.644Z,3.90
2018-09-02T15:28:11.440Z,4.20
2018-09-02T15:30:39.072Z,4.83
2018-09-02T15:33:06.418Z,5.45
2018-09-02T15:35:33.652Z,7.70
2018-09-02T15:52:43.274Z,3.50
2018-09-02T15:55:11.358Z,4.00
2018-09-02T17:28:25.792Z,9.33
2018-09-02T17:30:53.163Z,7.37
2018-09-02T17:33:21.074Z,6.25
2018-09-02T17:35:48.689Z,5.70
2018-09-02T17:38:17.039Z,6.10
2018-09-02T17:40:44.378Z,5.03
2018-09-02T17:43:12.483Z,7.50
2018-09-02T17:45:40.406Z,6.30
2018-09-02T17:48:08.042Z,6.65
2018-09-02T17:50:35.608Z,5.08
2018-09-02T17:53:02.916Z,10.45
2018-09-02T17:55:30.142Z,6.55
2018-09-02T17:57:57.401Z,8.40
2018-09-02T18:00:29.254Z,5.50
2018-09-02T18:02:57.487Z,7.85
2018-09-02T18:05:24.708Z,7.47
2018-09-02T18:07:52.258Z,6.40
2018-09-02T18:10:20.141Z,7.10
2018-09-02T18:12:47.736Z,5.90
2018-09-02T18:15:15.339Z,7.37
2018-09-02T18:17:43.468Z,6.20
2018-09-02T18:20:11.557Z,7.20
2018-09-02T18:22:39.023Z,9.50
2018-09-02T18:25:06.625Z,8.67
2018-09-02T18:27:36.460Z,9.57
2018-09-02T18:30:03.943Z,10.40
2018-09-02T18:35:05.843Z,8.08
2018-09-02T18:37:33.106Z,8.10
2018-09-02T18:40:00.310Z,5.73
2018-09-02T19:31:27.570Z,13.67
2018-09-02T19:33:54.904Z,12.13
2018-09-02T19:36:22.458Z,10.40
2018-09-02T19:38:50.344Z,13.22
2018-09-02T19:41:17.970Z,12.33
2018-09-02T19:43:46.412Z,16.27
2018-09-02T19:46:15.066Z,11.93
2018-09-02T19:48:43.043Z,12.50
2018-09-02T19:51:11.105Z,13.30
2018-09-02T19:53:38.409Z,16.10
2018-09-02T19:56:05.659Z,12.00
2018-09-02T19:58:33.725Z,11.22
2018-09-02T20:01:01.084Z,12.75
2018-09-02T20:03:28.392Z,15.08
2018-09-02T20:05:55.663Z,11.97
2018-09-02T20:08:23.048Z,12.18
2018-09-02T20:10:50.730Z,13.10
2018-09-02T20:13:18.574Z,11.05
2018-09-02T20:15:46.195Z,9.53
2018-09-02T20:18:14.261Z,11.73
2018-09-02T20:20:42.482Z,9.93
2018-09-02T20:23:09.740Z,11.70
2018-09-02T20:25:36.964Z,10.35
2018-09-02T20:28:04.210Z,11.45
2018-09-02T20:30:31.489Z,8.43
2018-09-02T20:32:58.834Z,11.60
2018-09-02T20:35:26.199Z,11.70
2018-09-02T20:37:54.036Z,9.45
2018-09-02T20:40:21.650Z,12.35
2018-09-02T20:42:48.988Z,11.48
2018-09-02T20:45:16.849Z,11.20
2018-09-02T20:47:45.486Z,10.40
2018-09-02T20:50:14.077Z,11.03
2018-09-02T20:52:42.325Z,13.62
2018-09-02T20:55:10.048Z,13.05
2018-09-02T20:57:37.629Z,10.43
2018-09-02T21:00:05.500Z,10.20
2018-09-02T21:02:33.036Z,11.93
2018-09-02T21:05:00.275Z,8.58
2018-09-02T21:07:27.524Z,10.50
2018-09-02T21:09:54.780Z,11.60
2018-09-02T21:12:22.340Z,9.90
2018-09-02T21:14:50.355Z,9.13
2018-09-02T21:17:18.309Z,9.55
2018-09-02T21:19:46.624Z,9.38
2018-09-02T21:22:14.779Z,9.75
2018-09-02T21:24:42.820Z,13.75
2018-09-02T21:27:10.146Z,10.93
2018-09-02T21:29:37.507Z,10.50
2018-09-02T21:32:05.015Z,10.23
2018-09-02T21:34:32.614Z,10.48
2018-09-02T21:36:59.864Z,8.78
2018-09-02T21:39:27.054Z,9.08
2018-09-02T21:41:54.304Z,8.60
2018-09-02T21:44:21.755Z,8.75
2018-09-02T21:46:49.241Z,11.45
2018-09-02T21:49:17.019Z,9.15
2018-09-02T21:51:45.335Z,6.45
2018-09-02T21:54:13.436Z,9.70
2018-09-02T21:56:41.228Z,10.58
2018-09-02T21:59:08.689Z,7.90
2018-09-02T22:01:35.921Z,8.00
2018-09-02T22:04:03.127Z,11.30
2018-09-02T22:06:30.633Z,9.85
2018-09-02T22:08:57.894Z,9.47
2018-09-02T22:11:25.136Z,10.18
2018-09-02T22:13:52.939Z,8.60
2018-09-02T22:16:20.236Z,7.58
2018-09-02T22:18:47.499Z,10.63
2018-09-02T22:21:15.361Z,7.28
2018-09-02T22:23:44.376Z,10.32
2018-09-02T22:26:12.135Z,7.30
2018-09-02T22:28:39.617Z,12.40
2018-09-02T22:31:07.304Z,10.70
2018-09-02T22:33:34.620Z,11.05
2018-09-02T22:36:01.871Z,11.60
2018-09-02T22:38:29.141Z,10.00
2018-09-02T22:40:56.395Z,9.08
2018-09-02T22:43:23.707Z,7.85
2018-09-02T22:45:51.312Z,7.97
2018-09-02T22:48:18.938Z,10.72
2018-09-02T22:50:47.017Z,8.28
2018-09-02T22:53:15.623Z,8.60
2018-09-02T22:55:44.123Z,9.65
2018-09-02T22:58:47.957Z,7.47
2018-09-02T23:01:15.994Z,8.05
2018-09-02T23:03:44.579Z,11.08
2018-09-02T23:06:14.266Z,7.97
2018-09-02T23:08:42.759Z,8.15
2018-09-02T23:11:10.571Z,6.20
2018-09-02T23:13:38.107Z,7.25
2018-09-02T23:16:05.481Z,7.72
2018-09-02T23:18:32.713Z,6.70
2018-09-02T23:20:59.973Z,7.80
2018-09-02T23:23:27.279Z,5.28
2018-09-02T23:25:54.815Z,8.50
2018-09-02T23:28:22.217Z,6.30
2018-09-02T23:30:49.738Z,7.60
2018-09-02T23:33:17.172Z,7.73
2018-09-02T23:35:44.809Z,7.20
2018-09-02T23:38:13.775Z,7.60
2018-09-02T23:40:41.734Z,9.58
2018-09-02T23:43:09.146Z,8.05
2018-09-02T23:45:36.667Z,8.70
2018-09-02T23:48:04.541Z,8.63
2018-09-02T23:50:31.849Z,7.95
2018-09-02T23:52:59.916Z,10.63
2018-09-02T23:55:27.103Z,8.08
2018-09-02T23:57:54.410Z,10.93
